sensor_id;sensor_type;location;lat;lon;timestamp;temperature;humidity
68804;SHT31;55787;52.678;13.314;2022-10-16T00:00:41;14.40;95.26
68804;SHT31;55787;52.678;13.314;2022-10-16T00:03:08;14.51;94.80
68804;SHT31;55787;52.678;13.314;2022-10-16T00:05:40;14.45;95.10
68804;SHT31;55787;52.678;13.314;2022-10-16T00:08:08;14.54;94.63
68804;SHT31;55787;52.678;13.314;2022-10-16T00:10:35;14.55;94.34
68804;SHT31;55787;52.678;13.314;2022-10-16T00:13:03;14.51;94.56
68804;SHT31;55787;52.678;13.314;2022-10-16T00:15:33;14.49;94.73
68804;SHT31;55787;52.678;13.314;2022-10-16T00:18:00;14.41;94.89
68804;SHT31;55787;52.678;13.314;2022-10-16T00:20:26;14.51;94.67
68804;SHT31;55787;52.678;13.314;2022-10-16T00:22:53;14.62;94.67
68804;SHT31;55787;52.678;13.314;2022-10-16T00:25:19;14.67;94.23
68804;SHT31;55787;52.678;13.314;2022-10-16T00:27:46;14.82;93.48
68804;SHT31;55787;52.678;13.314;2022-10-16T00:30:12;14.73;93.90
68804;SHT31;55787;52.678;13.314;2022-10-16T00:32:39;14.75;93.70
68804;SHT31;55787;52.678;13.314;2022-10-16T00:35:06;14.72;93.86
68804;SHT31;55787;52.678;13.314;2022-10-16T00:37:33;14.71;94.12
68804;SHT31;55787;52.678;13.314;2022-10-16T00:39:59;14.69;94.09
68804;SHT31;55787;52.678;13.314;2022-10-16T00:42:26;14.69;94.14
68804;SHT31;55787;52.678;13.314;2022-10-16T00:44:56;14.75;93.87
68804;SHT31;55787;52.678;13.314;2022-10-16T00:47:29;14.71;93.99
68804;SHT31;55787;52.678;13.314;2022-10-16T00:50:18;14.68;94.01
68804;SHT31;55787;52.678;13.314;2022-10-16T00:52:50;14.76;93.83
68804;SHT31;55787;52.678;13.314;2022-10-16T00:55:18;14.65;94.33
68804;SHT31;55787;52.678;13.314;2022-10-16T00:57:45;14.65;94.43
68804;SHT31;55787;52.678;13.314;2022-10-16T01:00:16;14.64;94.33
68804;SHT31;55787;52.678;13.314;2022-10-16T01:02:43;14.69;94.20
68804;SHT31;55787;52.678;13.314;2022-10-16T01:05:10;14.75;93.76
68804;SHT31;55787;52.678;13.314;2022-10-16T01:07:46;14.72;94.24
68804;SHT31;55787;52.678;13.314;2022-10-16T01:13:00;14.73;94.31
68804;SHT31;55787;52.678;13.314;2022-10-16T01:15:34;14.72;94.08
68804;SHT31;55787;52.678;13.314;2022-10-16T01:20:37;14.88;93.75
68804;SHT31;55787;52.678;13.314;2022-10-16T01:23:21;14.92;93.36
68804;SHT31;55787;52.678;13.314;2022-10-16T01:28:36;14.85;93.35
68804;SHT31;55787;52.678;13.314;2022-10-16T01:31:06;14.86;93.55
68804;SHT31;55787;52.678;13.314;2022-10-16T01:33:44;14.76;93.94
68804;SHT31;55787;52.678;13.314;2022-10-16T01:36:19;14.76;94.09
68804;SHT31;55787;52.678;13.314;2022-10-16T01:38:49;14.76;94.01
68804;SHT31;55787;52.678;13.314;2022-10-16T01:41:24;14.72;94.08
68804;SHT31;55787;52.678;13.314;2022-10-16T01:43:57;14.73;94.03
68804;SHT31;55787;52.678;13.314;2022-10-16T01:46:30;14.76;93.97
68804;SHT31;55787;52.678;13.314;2022-10-16T01:48:59;14.76;94.15
68804;SHT31;55787;52.678;13.314;2022-10-16T01:51:27;14.79;93.84
68804;SHT31;55787;52.678;13.314;2022-10-16T01:53:58;14.81;93.87
68804;SHT31;55787;52.678;13.314;2022-10-16T01:56:27;14.83;93.73
68804;SHT31;55787;52.678;13.314;2022-10-16T01:59:01;14.78;93.96
68804;SHT31;55787;52.678;13.314;2022-10-16T02:01:33;14.69;94.16
68804;SHT31;55787;52.678;13.314;2022-10-16T02:04:08;14.72;94.32
68804;SHT31;55787;52.678;13.314;2022-10-16T02:06:36;14.71;94.39
68804;SHT31;55787;52.678;13.314;2022-10-16T02:09:03;14.67;94.67
68804;SHT31;55787;52.678;13.314;2022-10-16T02:11:29;14.65;94.66
68804;SHT31;55787;52.678;13.314;2022-10-16T02:14:03;14.67;94.80
68804;SHT31;55787;52.678;13.314;2022-10-16T02:16:42;14.72;94.60
68804;SHT31;55787;52.678;13.314;2022-10-16T02:19:10;14.76;94.22
68804;SHT31;55787;52.678;13.314;2022-10-16T02:21:50;14.71;94.50
68804;SHT31;55787;52.678;13.314;2022-10-16T02:24:43;14.68;94.62
68804;SHT31;55787;52.678;13.314;2022-10-16T02:27:27;14.68;94.70
68804;SHT31;55787;52.678;13.314;2022-10-16T02:30:07;14.61;94.72
68804;SHT31;55787;52.678;13.314;2022-10-16T02:32:37;14.61;94.84
68804;SHT31;55787;52.678;13.314;2022-10-16T02:35:05;14.62;94.41
68804;SHT31;55787;52.678;13.314;2022-10-16T02:37:33;14.55;94.60
68804;SHT31;55787;52.678;13.314;2022-10-16T02:40:00;14.62;94.25
68804;SHT31;55787;52.678;13.314;2022-10-16T02:42:29;14.60;94.32
68804;SHT31;55787;52.678;13.314;2022-10-16T02:44:59;14.45;94.39
68804;SHT31;55787;52.678;13.314;2022-10-16T02:47:26;14.45;94.65
68804;SHT31;55787;52.678;13.314;2022-10-16T02:49:52;14.40;94.98
68804;SHT31;55787;52.678;13.314;2022-10-16T02:52:19;14.44;94.86
68804;SHT31;55787;52.678;13.314;2022-10-16T02:54:45;14.40;94.77
68804;SHT31;55787;52.678;13.314;2022-10-16T02:57:12;14.41;94.62
68804;SHT31;55787;52.678;13.314;2022-10-16T02:59:38;14.40;94.70
68804;SHT31;55787;52.678;13.314;2022-10-16T03:02:05;14.38;94.65
68804;SHT31;55787;52.678;13.314;2022-10-16T03:04:31;14.35;94.88
68804;SHT31;55787;52.678;13.314;2022-10-16T03:06:58;14.25;94.77
68804;SHT31;55787;52.678;13.314;2022-10-16T03:09:24;14.20;95.40
68804;SHT31;55787;52.678;13.314;2022-10-16T03:11:51;14.14;95.33
68804;SHT31;55787;52.678;13.314;2022-10-16T03:14:18;14.04;95.30
68804;SHT31;55787;52.678;13.314;2022-10-16T03:16:45;14.00;95.58
68804;SHT31;55787;52.678;13.314;2022-10-16T03:19:11;13.96;95.83
68804;SHT31;55787;52.678;13.314;2022-10-16T03:21:38;13.90;95.86
68804;SHT31;55787;52.678;13.314;2022-10-16T03:24:04;13.96;95.95
68804;SHT31;55787;52.678;13.314;2022-10-16T03:26:31;13.89;95.75
68804;SHT31;55787;52.678;13.314;2022-10-16T03:28:58;13.82;95.77
68804;SHT31;55787;52.678;13.314;2022-10-16T03:31:24;13.73;95.83
68804;SHT31;55787;52.678;13.314;2022-10-16T03:33:51;13.79;96.54
68804;SHT31;55787;52.678;13.314;2022-10-16T03:36:17;13.72;96.24
68804;SHT31;55787;52.678;13.314;2022-10-16T03:38:44;13.65;96.20
68804;SHT31;55787;52.678;13.314;2022-10-16T03:41:10;13.59;96.24
68804;SHT31;55787;52.678;13.314;2022-10-16T03:43:37;13.59;96.45
68804;SHT31;55787;52.678;13.314;2022-10-16T03:46:04;13.65;96.83
68804;SHT31;55787;52.678;13.314;2022-10-16T03:48:30;13.58;96.47
68804;SHT31;55787;52.678;13.314;2022-10-16T03:50:58;13.53;96.73
68804;SHT31;55787;52.678;13.314;2022-10-16T03:53:25;13.48;96.73
68804;SHT31;55787;52.678;13.314;2022-10-16T03:55:51;13.43;96.83
68804;SHT31;55787;52.678;13.314;2022-10-16T03:58:18;13.45;96.97
68804;SHT31;55787;52.678;13.314;2022-10-16T04:00:46;13.43;96.99
68804;SHT31;55787;52.678;13.314;2022-10-16T04:03:14;13.43;97.14
68804;SHT31;55787;52.678;13.314;2022-10-16T04:05:40;13.46;97.25
68804;SHT31;55787;52.678;13.314;2022-10-16T04:08:07;13.48;97.16
68804;SHT31;55787;52.678;13.314;2022-10-16T04:10:34;13.45;97.15
68804;SHT31;55787;52.678;13.314;2022-10-16T04:13:00;13.42;97.12
68804;SHT31;55787;52.678;13.314;2022-10-16T04:15:27;13.42;97.25
68804;SHT31;55787;52.678;13.314;2022-10-16T04:17:53;13.39;97.48
68804;SHT31;55787;52.678;13.314;2022-10-16T04:20:20;13.34;97.31
68804;SHT31;55787;52.678;13.314;2022-10-16T04:22:47;13.26;97.26
68804;SHT31;55787;52.678;13.314;2022-10-16T04:25:13;13.19;97.25
68804;SHT31;55787;52.678;13.314;2022-10-16T04:27:40;13.11;97.33
68804;SHT31;55787;52.678;13.314;2022-10-16T04:30:12;13.05;97.51
68804;SHT31;55787;52.678;13.314;2022-10-16T04:32:40;13.04;97.87
68804;SHT31;55787;52.678;13.314;2022-10-16T04:35:07;13.02;97.79
68804;SHT31;55787;52.678;13.314;2022-10-16T04:37:34;13.04;97.88
68804;SHT31;55787;52.678;13.314;2022-10-16T04:40:00;13.00;97.83
68804;SHT31;55787;52.678;13.314;2022-10-16T04:42:27;12.95;97.91
68804;SHT31;55787;52.678;13.314;2022-10-16T04:44:53;12.97;97.98
68804;SHT31;55787;52.678;13.314;2022-10-16T04:47:20;12.97;98.08
68804;SHT31;55787;52.678;13.314;2022-10-16T04:49:46;12.97;98.08
68804;SHT31;55787;52.678;13.314;2022-10-16T04:52:13;12.93;97.95
68804;SHT31;55787;52.678;13.314;2022-10-16T04:54:40;12.88;97.89
68804;SHT31;55787;52.678;13.314;2022-10-16T04:57:06;12.81;97.83
68804;SHT31;55787;52.678;13.314;2022-10-16T04:59:33;12.74;97.87
68804;SHT31;55787;52.678;13.314;2022-10-16T05:01:59;12.70;97.94
68804;SHT31;55787;52.678;13.314;2022-10-16T05:04:26;12.63;98.00
68804;SHT31;55787;52.678;13.314;2022-10-16T05:06:52;12.60;98.03
68804;SHT31;55787;52.678;13.314;2022-10-16T05:09:19;12.52;97.99
68804;SHT31;55787;52.678;13.314;2022-10-16T05:11:46;12.47;97.91
68804;SHT31;55787;52.678;13.314;2022-10-16T05:14:13;12.47;98.00
68804;SHT31;55787;52.678;13.314;2022-10-16T05:16:39;12.43;98.16
68804;SHT31;55787;52.678;13.314;2022-10-16T05:19:06;12.42;98.21
68804;SHT31;55787;52.678;13.314;2022-10-16T05:21:52;12.40;98.29
68804;SHT31;55787;52.678;13.314;2022-10-16T05:24:19;12.36;98.38
68804;SHT31;55787;52.678;13.314;2022-10-16T05:26:45;12.34;98.33
68804;SHT31;55787;52.678;13.314;2022-10-16T05:29:12;12.32;98.38
68804;SHT31;55787;52.678;13.314;2022-10-16T05:31:38;12.29;98.33
68804;SHT31;55787;52.678;13.314;2022-10-16T05:34:05;12.23;98.24
68804;SHT31;55787;52.678;13.314;2022-10-16T05:36:32;12.22;98.22
68804;SHT31;55787;52.678;13.314;2022-10-16T05:38:59;12.18;98.26
68804;SHT31;55787;52.678;13.314;2022-10-16T05:41:25;12.16;98.26
68804;SHT31;55787;52.678;13.314;2022-10-16T05:43:53;12.19;98.34
68804;SHT31;55787;52.678;13.314;2022-10-16T05:46:20;12.22;98.59
68804;SHT31;55787;52.678;13.314;2022-10-16T05:48:46;12.28;98.74
68804;SHT31;55787;52.678;13.314;2022-10-16T05:51:14;12.33;98.72
68804;SHT31;55787;52.678;13.314;2022-10-16T05:53:41;12.40;98.62
68804;SHT31;55787;52.678;13.314;2022-10-16T05:56:13;12.43;98.68
68804;SHT31;55787;52.678;13.314;2022-10-16T05:58:40;12.49;98.84
68804;SHT31;55787;52.678;13.314;2022-10-16T06:01:11;12.54;98.68
68804;SHT31;55787;52.678;13.314;2022-10-16T06:03:38;12.59;98.73
68804;SHT31;55787;52.678;13.314;2022-10-16T06:06:10;12.61;98.76
68804;SHT31;55787;52.678;13.314;2022-10-16T06:08:38;12.67;98.77
68804;SHT31;55787;52.678;13.314;2022-10-16T06:11:07;12.71;98.87
68804;SHT31;55787;52.678;13.314;2022-10-16T06:13:33;12.81;98.75
68804;SHT31;55787;52.678;13.314;2022-10-16T06:16:01;12.91;98.91
68804;SHT31;55787;52.678;13.314;2022-10-16T06:18:29;13.01;98.72
68804;SHT31;55787;52.678;13.314;2022-10-16T06:20:56;13.10;98.64
68804;SHT31;55787;52.678;13.314;2022-10-16T06:23:24;13.12;98.62
68804;SHT31;55787;52.678;13.314;2022-10-16T06:25:51;13.15;98.73
68804;SHT31;55787;52.678;13.314;2022-10-16T06:28:17;13.19;98.71
68804;SHT31;55787;52.678;13.314;2022-10-16T06:30:44;13.25;98.65
68804;SHT31;55787;52.678;13.314;2022-10-16T06:33:13;13.26;98.65
68804;SHT31;55787;52.678;13.314;2022-10-16T06:35:40;13.31;98.69
68804;SHT31;55787;52.678;13.314;2022-10-16T06:38:07;13.35;98.74
68804;SHT31;55787;52.678;13.314;2022-10-16T06:40:33;13.39;98.71
68804;SHT31;55787;52.678;13.314;2022-10-16T06:43:00;13.48;98.71
68804;SHT31;55787;52.678;13.314;2022-10-16T06:45:27;13.51;98.68
68804;SHT31;55787;52.678;13.314;2022-10-16T06:47:53;13.55;98.71
68804;SHT31;55787;52.678;13.314;2022-10-16T06:50:20;13.62;98.67
68804;SHT31;55787;52.678;13.314;2022-10-16T06:52:47;13.63;98.62
68804;SHT31;55787;52.678;13.314;2022-10-16T06:55:14;13.72;98.53
68804;SHT31;55787;52.678;13.314;2022-10-16T06:57:41;13.80;98.34
68804;SHT31;55787;52.678;13.314;2022-10-16T07:00:08;13.90;98.14
68804;SHT31;55787;52.678;13.314;2022-10-16T07:02:35;13.96;97.95
68804;SHT31;55787;52.678;13.314;2022-10-16T07:05:02;14.04;97.78
68804;SHT31;55787;52.678;13.314;2022-10-16T07:07:29;14.10;97.59
68804;SHT31;55787;52.678;13.314;2022-10-16T07:09:55;14.14;97.53
68804;SHT31;55787;52.678;13.314;2022-10-16T07:12:22;14.24;97.16
68804;SHT31;55787;52.678;13.314;2022-10-16T07:14:49;14.30;96.95
68804;SHT31;55787;52.678;13.314;2022-10-16T07:17:18;14.34;96.94
68804;SHT31;55787;52.678;13.314;2022-10-16T07:19:44;14.40;96.89
68804;SHT31;55787;52.678;13.314;2022-10-16T07:22:11;14.46;96.66
68804;SHT31;55787;52.678;13.314;2022-10-16T07:24:38;14.57;96.66
68804;SHT31;55787;52.678;13.314;2022-10-16T07:27:04;14.67;96.52
68804;SHT31;55787;52.678;13.314;2022-10-16T07:29:31;14.85;96.14
68804;SHT31;55787;52.678;13.314;2022-10-16T07:31:57;14.99;95.58
68804;SHT31;55787;52.678;13.314;2022-10-16T07:34:24;15.09;95.10
68804;SHT31;55787;52.678;13.314;2022-10-16T07:36:52;15.14;94.13
68804;SHT31;55787;52.678;13.314;2022-10-16T07:39:19;15.26;94.21
68804;SHT31;55787;52.678;13.314;2022-10-16T07:41:46;15.33;93.67
68804;SHT31;55787;52.678;13.314;2022-10-16T07:44:13;15.43;92.55
68804;SHT31;55787;52.678;13.314;2022-10-16T07:46:39;15.47;91.83
68804;SHT31;55787;52.678;13.314;2022-10-16T07:49:06;15.63;91.89
68804;SHT31;55787;52.678;13.314;2022-10-16T07:51:33;15.67;92.07
68804;SHT31;55787;52.678;13.314;2022-10-16T07:53:59;15.74;91.95
68804;SHT31;55787;52.678;13.314;2022-10-16T07:56:26;15.77;92.23
68804;SHT31;55787;52.678;13.314;2022-10-16T07:58:52;15.75;91.93
68804;SHT31;55787;52.678;13.314;2022-10-16T08:01:19;15.77;91.33
68804;SHT31;55787;52.678;13.314;2022-10-16T08:03:51;15.82;90.81
68804;SHT31;55787;52.678;13.314;2022-10-16T08:06:19;15.98;90.49
68804;SHT31;55787;52.678;13.314;2022-10-16T08:08:54;16.06;90.03
68804;SHT31;55787;52.678;13.314;2022-10-16T08:11:20;16.12;90.26
68804;SHT31;55787;52.678;13.314;2022-10-16T08:13:47;16.23;90.20
68804;SHT31;55787;52.678;13.314;2022-10-16T08:16:14;16.16;89.62
68804;SHT31;55787;52.678;13.314;2022-10-16T08:18:40;16.12;89.64
68804;SHT31;55787;52.678;13.314;2022-10-16T08:21:13;16.13;90.18
68804;SHT31;55787;52.678;13.314;2022-10-16T08:23:47;16.19;90.27
68804;SHT31;55787;52.678;13.314;2022-10-16T08:26:22;16.23;89.64
68804;SHT31;55787;52.678;13.314;2022-10-16T08:28:50;16.30;88.82
68804;SHT31;55787;52.678;13.314;2022-10-16T08:31:17;16.34;88.85
68804;SHT31;55787;52.678;13.314;2022-10-16T08:33:44;16.50;88.80
68804;SHT31;55787;52.678;13.314;2022-10-16T08:36:14;16.53;88.85
68804;SHT31;55787;52.678;13.314;2022-10-16T08:38:41;16.53;88.43
68804;SHT31;55787;52.678;13.314;2022-10-16T08:49:29;16.77;87.79
68804;SHT31;55787;52.678;13.314;2022-10-16T08:51:56;16.77;87.24
68804;SHT31;55787;52.678;13.314;2022-10-16T08:54:33;16.99;87.35
68804;SHT31;55787;52.678;13.314;2022-10-16T08:57:13;17.06;86.71
68804;SHT31;55787;52.678;13.314;2022-10-16T08:59:46;17.43;86.47
68804;SHT31;55787;52.678;13.314;2022-10-16T09:02:24;17.58;84.62
68804;SHT31;55787;52.678;13.314;2022-10-16T09:05:21;17.66;84.27
68804;SHT31;55787;52.678;13.314;2022-10-16T09:16:32;18.88;79.67
68804;SHT31;55787;52.678;13.314;2022-10-16T09:19:13;19.47;78.49
68804;SHT31;55787;52.678;13.314;2022-10-16T09:21:44;20.21;75.90
68804;SHT31;55787;52.678;13.314;2022-10-16T09:24:19;19.75;75.22
68804;SHT31;55787;52.678;13.314;2022-10-16T09:26:51;19.74;75.85
68804;SHT31;55787;52.678;13.314;2022-10-16T09:29:19;19.80;76.42
68804;SHT31;55787;52.678;13.314;2022-10-16T09:31:47;19.19;77.50
68804;SHT31;55787;52.678;13.314;2022-10-16T09:34:32;19.71;75.65
68804;SHT31;55787;52.678;13.314;2022-10-16T09:37:03;19.66;75.25
68804;SHT31;55787;52.678;13.314;2022-10-16T09:39:30;21.75;70.89
68804;SHT31;55787;52.678;13.314;2022-10-16T09:41:57;22.60;67.84
68804;SHT31;55787;52.678;13.314;2022-10-16T09:44:27;23.94;65.18
68804;SHT31;55787;52.678;13.314;2022-10-16T09:47:18;23.11;62.78
68804;SHT31;55787;52.678;13.314;2022-10-16T09:49:57;21.62;68.01
68804;SHT31;55787;52.678;13.314;2022-10-16T09:52:25;21.61;68.52
68804;SHT31;55787;52.678;13.314;2022-10-16T09:54:57;21.89;68.13
68804;SHT31;55787;52.678;13.314;2022-10-16T09:57:25;21.48;68.78
68804;SHT31;55787;52.678;13.314;2022-10-16T09:59:57;20.56;72.07
68804;SHT31;55787;52.678;13.314;2022-10-16T10:02:30;20.56;72.14
68804;SHT31;55787;52.678;13.314;2022-10-16T10:04:57;20.18;73.53
68804;SHT31;55787;52.678;13.314;2022-10-16T10:07:32;20.36;72.63
68804;SHT31;55787;52.678;13.314;2022-10-16T10:10:02;20.53;71.84
68804;SHT31;55787;52.678;13.314;2022-10-16T10:12:33;20.01;73.02
68804;SHT31;55787;52.678;13.314;2022-10-16T10:15:11;20.17;72.54
68804;SHT31;55787;52.678;13.314;2022-10-16T10:17:55;19.97;73.12
68804;SHT31;55787;52.678;13.314;2022-10-16T10:20:26;20.33;72.93
68804;SHT31;55787;52.678;13.314;2022-10-16T10:22:54;20.33;72.22
68804;SHT31;55787;52.678;13.314;2022-10-16T10:25:59;20.83;70.15
68804;SHT31;55787;52.678;13.314;2022-10-16T10:32:04;21.10;69.49
68804;SHT31;55787;52.678;13.314;2022-10-16T10:46:35;20.25;70.79
68804;SHT31;55787;52.678;13.314;2022-10-16T10:56:57;20.17;70.82
68804;SHT31;55787;52.678;13.314;2022-10-16T11:02:40;20.25;71.45
68804;SHT31;55787;52.678;13.314;2022-10-16T11:05:21;19.80;71.04
68804;SHT31;55787;52.678;13.314;2022-10-16T11:07:54;20.19;71.77
68804;SHT31;55787;52.678;13.314;2022-10-16T11:10:25;20.15;71.24
68804;SHT31;55787;52.678;13.314;2022-10-16T11:13:17;20.15;70.99
68804;SHT31;55787;52.678;13.314;2022-10-16T11:15:47;20.07;71.63
68804;SHT31;55787;52.678;13.314;2022-10-16T11:18:23;19.69;72.35
68804;SHT31;55787;52.678;13.314;2022-10-16T11:20:54;19.60;72.49
68804;SHT31;55787;52.678;13.314;2022-10-16T11:23:26;19.90;71.98
68804;SHT31;55787;52.678;13.314;2022-10-16T11:25:59;20.90;69.41
68804;SHT31;55787;52.678;13.314;2022-10-16T11:28:32;21.27;67.91
68804;SHT31;55787;52.678;13.314;2022-10-16T11:33:55;20.70;69.05
68804;SHT31;55787;52.678;13.314;2022-10-16T11:36:29;20.42;68.84
68804;SHT31;55787;52.678;13.314;2022-10-16T11:39:46;20.29;68.70
68804;SHT31;55787;52.678;13.314;2022-10-16T11:41:51;20.38;70.00
68804;SHT31;55787;52.678;13.314;2022-10-16T11:52:53;20.63;67.44
68804;SHT31;55787;52.678;13.314;2022-10-16T11:55:27;21.12;66.28
68804;SHT31;55787;52.678;13.314;2022-10-16T11:58:01;21.37;65.98
68804;SHT31;55787;52.678;13.314;2022-10-16T12:00:50;21.82;64.61
68804;SHT31;55787;52.678;13.314;2022-10-16T12:03:35;22.00;60.07
68804;SHT31;55787;52.678;13.314;2022-10-16T12:06:21;22.41;61.36
68804;SHT31;55787;52.678;13.314;2022-10-16T12:08:51;21.62;60.96
68804;SHT31;55787;52.678;13.314;2022-10-16T12:11:39;21.17;63.41
68804;SHT31;55787;52.678;13.314;2022-10-16T12:16:51;20.56;64.12
68804;SHT31;55787;52.678;13.314;2022-10-16T12:19:18;20.89;62.74
68804;SHT31;55787;52.678;13.314;2022-10-16T12:21:46;21.51;62.02
68804;SHT31;55787;52.678;13.314;2022-10-16T12:26:48;21.92;59.91
68804;SHT31;55787;52.678;13.314;2022-10-16T12:31:59;22.63;54.72
68804;SHT31;55787;52.678;13.314;2022-10-16T12:34:35;22.90;56.07
68804;SHT31;55787;52.678;13.314;2022-10-16T12:37:29;23.30;53.54
68804;SHT31;55787;52.678;13.314;2022-10-16T12:39:58;23.49;53.05
68804;SHT31;55787;52.678;13.314;2022-10-16T12:44:53;23.29;52.27
68804;SHT31;55787;52.678;13.314;2022-10-16T12:47:34;24.11;50.31
68804;SHT31;55787;52.678;13.314;2022-10-16T12:50:02;24.29;50.89
68804;SHT31;55787;52.678;13.314;2022-10-16T12:52:38;25.40;48.02
68804;SHT31;55787;52.678;13.314;2022-10-16T12:55:14;24.96;47.38
68804;SHT31;55787;52.678;13.314;2022-10-16T12:58:11;23.74;49.48
68804;SHT31;55787;52.678;13.314;2022-10-16T13:00:45;24.80;47.87
68804;SHT31;55787;52.678;13.314;2022-10-16T13:03:47;25.15;47.04
68804;SHT31;55787;52.678;13.314;2022-10-16T13:19:41;24.45;47.64
68804;SHT31;55787;52.678;13.314;2022-10-16T13:25:05;25.60;45.14
68804;SHT31;55787;52.678;13.314;2022-10-16T13:30:13;24.92;47.08
68804;SHT31;55787;52.678;13.314;2022-10-16T13:32:45;24.08;48.09
68804;SHT31;55787;52.678;13.314;2022-10-16T13:35:33;24.49;46.69
68804;SHT31;55787;52.678;13.314;2022-10-16T13:38:13;24.49;46.33
68804;SHT31;55787;52.678;13.314;2022-10-16T13:40:57;24.64;45.70
68804;SHT31;55787;52.678;13.314;2022-10-16T13:43:35;24.48;45.51
68804;SHT31;55787;52.678;13.314;2022-10-16T13:46:05;23.97;47.11
68804;SHT31;55787;52.678;13.314;2022-10-16T13:48:33;24.54;45.87
68804;SHT31;55787;52.678;13.314;2022-10-16T13:53:32;24.68;46.11
68804;SHT31;55787;52.678;13.314;2022-10-16T13:55:59;24.29;46.45
68804;SHT31;55787;52.678;13.314;2022-10-16T13:58:26;23.46;46.79
68804;SHT31;55787;52.678;13.314;2022-10-16T14:01:02;23.25;48.31
68804;SHT31;55787;52.678;13.314;2022-10-16T14:03:30;23.59;48.09
68804;SHT31;55787;52.678;13.314;2022-10-16T14:05:59;23.39;47.43
68804;SHT31;55787;52.678;13.314;2022-10-16T14:08:27;23.56;48.94
68804;SHT31;55787;52.678;13.314;2022-10-16T14:10:57;23.87;48.48
68804;SHT31;55787;52.678;13.314;2022-10-16T14:13:37;23.60;48.65
68804;SHT31;55787;52.678;13.314;2022-10-16T14:16:10;23.19;49.40
68804;SHT31;55787;52.678;13.314;2022-10-16T14:18:38;22.86;49.49
68804;SHT31;55787;52.678;13.314;2022-10-16T14:21:11;22.63;50.59
68804;SHT31;55787;52.678;13.314;2022-10-16T14:23:39;22.32;50.71
68804;SHT31;55787;52.678;13.314;2022-10-16T14:28:37;22.86;51.92
68804;SHT31;55787;52.678;13.314;2022-10-16T14:31:25;22.51;50.93
68804;SHT31;55787;52.678;13.314;2022-10-16T14:33:52;22.43;51.28
68804;SHT31;55787;52.678;13.314;2022-10-16T14:36:18;22.26;52.05
68804;SHT31;55787;52.678;13.314;2022-10-16T14:41:25;22.16;52.38
68804;SHT31;55787;52.678;13.314;2022-10-16T14:43:57;22.47;53.88
68804;SHT31;55787;52.678;13.314;2022-10-16T14:46:35;22.05;53.15
68804;SHT31;55787;52.678;13.314;2022-10-16T14:51:40;21.77;53.10
68804;SHT31;55787;52.678;13.314;2022-10-16T14:54:09;21.83;53.34
68804;SHT31;55787;52.678;13.314;2022-10-16T14:59:15;21.08;55.76
68804;SHT31;55787;52.678;13.314;2022-10-16T15:01:43;20.81;57.07
68804;SHT31;55787;52.678;13.314;2022-10-16T15:04:11;20.60;57.48
68804;SHT31;55787;52.678;13.314;2022-10-16T15:06:40;20.36;59.07
68804;SHT31;55787;52.678;13.314;2022-10-16T15:09:07;20.21;58.53
68804;SHT31;55787;52.678;13.314;2022-10-16T15:11:34;20.04;59.78
68804;SHT31;55787;52.678;13.314;2022-10-16T15:14:03;19.81;61.91
68804;SHT31;55787;52.678;13.314;2022-10-16T15:16:31;19.57;63.12
68804;SHT31;55787;52.678;13.314;2022-10-16T15:18:58;19.40;60.78
68804;SHT31;55787;52.678;13.314;2022-10-16T15:21:25;19.33;63.42
68804;SHT31;55787;52.678;13.314;2022-10-16T15:23:53;19.23;60.92
68804;SHT31;55787;52.678;13.314;2022-10-16T15:26:19;19.23;60.04
68804;SHT31;55787;52.678;13.314;2022-10-16T15:28:46;19.18;60.53
68804;SHT31;55787;52.678;13.314;2022-10-16T15:31:13;19.15;60.80
68804;SHT31;55787;52.678;13.314;2022-10-16T15:33:39;19.06;61.11
68804;SHT31;55787;52.678;13.314;2022-10-16T15:36:10;18.87;64.03
68804;SHT31;55787;52.678;13.314;2022-10-16T15:38:37;18.55;64.61
68804;SHT31;55787;52.678;13.314;2022-10-16T15:41:12;18.43;63.92
68804;SHT31;55787;52.678;13.314;2022-10-16T15:43:39;18.17;66.02
68804;SHT31;55787;52.678;13.314;2022-10-16T15:46:08;18.07;65.98
68804;SHT31;55787;52.678;13.314;2022-10-16T15:48:40;17.85;67.97
68804;SHT31;55787;52.678;13.314;2022-10-16T15:51:07;17.66;68.58
68804;SHT31;55787;52.678;13.314;2022-10-16T15:53:35;17.46;68.59
68804;SHT31;55787;52.678;13.314;2022-10-16T15:56:06;17.45;67.53
68804;SHT31;55787;52.678;13.314;2022-10-16T15:58:33;17.34;67.99
68804;SHT31;55787;52.678;13.314;2022-10-16T16:01:00;17.11;70.11
68804;SHT31;55787;52.678;13.314;2022-10-16T16:03:28;16.94;71.13
68804;SHT31;55787;52.678;13.314;2022-10-16T16:05:55;16.71;72.90
68804;SHT31;55787;52.678;13.314;2022-10-16T16:08:22;16.53;73.86
68804;SHT31;55787;52.678;13.314;2022-10-16T16:11:08;16.33;73.58
68804;SHT31;55787;52.678;13.314;2022-10-16T16:13:35;16.21;74.11
68804;SHT31;55787;52.678;13.314;2022-10-16T16:16:13;16.01;74.50
68804;SHT31;55787;52.678;13.314;2022-10-16T16:18:41;15.84;74.99
68804;SHT31;55787;52.678;13.314;2022-10-16T16:21:10;15.63;75.77
68804;SHT31;55787;52.678;13.314;2022-10-16T16:23:37;15.44;77.10
68804;SHT31;55787;52.678;13.314;2022-10-16T16:26:11;15.27;77.93
68804;SHT31;55787;52.678;13.314;2022-10-16T16:28:40;15.06;78.13
68804;SHT31;55787;52.678;13.314;2022-10-16T16:31:08;14.95;78.33
68804;SHT31;55787;52.678;13.314;2022-10-16T16:33:34;14.79;79.13
68804;SHT31;55787;52.678;13.314;2022-10-16T16:36:04;14.68;79.51
68804;SHT31;55787;52.678;13.314;2022-10-16T16:38:34;14.49;79.79
68804;SHT31;55787;52.678;13.314;2022-10-16T16:41:17;14.37;80.45
68804;SHT31;55787;52.678;13.314;2022-10-16T16:43:44;14.23;80.99
68804;SHT31;55787;52.678;13.314;2022-10-16T16:46:11;14.13;81.15
68804;SHT31;55787;52.678;13.314;2022-10-16T16:48:38;14.00;81.15
68804;SHT31;55787;52.678;13.314;2022-10-16T16:51:06;13.93;81.92
68804;SHT31;55787;52.678;13.314;2022-10-16T16:53:34;13.80;82.31
68804;SHT31;55787;52.678;13.314;2022-10-16T16:56:03;13.70;82.90
68804;SHT31;55787;52.678;13.314;2022-10-16T16:58:31;13.63;82.58
68804;SHT31;55787;52.678;13.314;2022-10-16T17:00:58;13.51;82.99
68804;SHT31;55787;52.678;13.314;2022-10-16T17:03:45;13.36;83.86
68804;SHT31;55787;52.678;13.314;2022-10-16T17:06:13;13.29;84.09
68804;SHT31;55787;52.678;13.314;2022-10-16T17:08:47;13.22;84.55
68804;SHT31;55787;52.678;13.314;2022-10-16T17:11:17;13.10;85.16
68804;SHT31;55787;52.678;13.314;2022-10-16T17:13:44;13.00;85.40
68804;SHT31;55787;52.678;13.314;2022-10-16T17:16:11;12.93;85.62
68804;SHT31;55787;52.678;13.314;2022-10-16T17:18:37;12.81;85.75